createdAt,value
2022-11-27T00:02:02.023Z,24.60
2022-11-27T00:04:50.602Z,29.67
2022-11-27T00:07:39.392Z,22.20
2022-11-27T00:10:35.024Z,24.10
2022-11-27T00:13:26.656Z,25.67
2022-11-27T00:16:17.133Z,27.47
2022-11-27T00:19:07.132Z,22.53
2022-11-27T00:21:57.052Z,21.30
2022-11-27T00:24:48.918Z,23.40
2022-11-27T00:27:39.348Z,21.93
2022-11-27T00:30:30.695Z,24.00
2022-11-27T00:33:19.321Z,18.70
2022-11-27T00:36:10.292Z,20.53
2022-11-27T00:39:01.589Z,26.03
2022-11-27T00:41:53.141Z,20.77
2022-11-27T00:44:46.267Z,23.10
2022-11-27T00:47:38.127Z,19.87
2022-11-27T00:50:26.718Z,21.50
2022-11-27T00:53:27.187Z,20.90
2022-11-27T00:56:19.617Z,20.97
2022-11-27T00:59:09.125Z,28.87
2022-11-27T01:02:02.283Z,21.90
2022-11-27T01:04:59.372Z,20.57
2022-11-27T01:07:48.021Z,19.13
2022-11-27T01:10:39.122Z,14.53
2022-11-27T01:13:28.542Z,20.00
2022-11-27T01:16:23.066Z,20.00
2022-11-27T01:19:13.714Z,20.43
2022-11-27T01:22:04.191Z,18.50
2022-11-27T01:24:54.913Z,19.30
2022-11-27T01:27:47.622Z,16.97
2022-11-27T01:30:40.170Z,19.80
2022-11-27T01:33:31.540Z,22.70
2022-11-27T01:36:26.443Z,19.60
2022-11-27T01:39:25.245Z,16.67
2022-11-27T01:42:13.895Z,19.30
2022-11-27T01:45:05.143Z,15.03
2022-11-27T01:47:58.987Z,19.47
2022-11-27T01:50:47.616Z,19.93
2022-11-27T01:53:38.362Z,13.50
2022-11-27T01:56:28.989Z,17.30
2022-11-27T01:59:18.235Z,13.07
2022-11-27T02:02:08.303Z,14.30
2022-11-27T02:05:00.728Z,15.70
2022-11-27T02:07:49.525Z,14.13
2022-11-27T02:10:47.764Z,15.87
2022-11-27T02:13:43.903Z,16.83
2022-11-27T02:16:37.750Z,14.90
2022-11-27T02:19:38.670Z,18.43
2022-11-27T02:22:45.291Z,22.43
2022-11-27T02:25:42.320Z,15.97
2022-11-27T02:28:40.771Z,14.43
2022-11-27T02:31:36.284Z,19.30
2022-11-27T02:34:28.403Z,16.80
2022-11-27T02:37:24.552Z,18.43
2022-11-27T02:40:21.530Z,16.03
2022-11-27T02:43:14.922Z,17.13
2022-11-27T02:46:06.790Z,15.70
2022-11-27T02:48:58.572Z,14.87
2022-11-27T02:51:50.007Z,16.70
2022-11-27T02:54:40.679Z,15.90
2022-11-27T02:57:29.719Z,15.53
2022-11-27T03:00:30.392Z,16.87
2022-11-27T03:03:20.163Z,16.70
2022-11-27T03:06:11.836Z,15.50
2022-11-27T03:09:07.948Z,16.93
2022-11-27T03:11:58.844Z,16.10
2022-11-27T03:14:51.710Z,14.93
2022-11-27T03:17:51.821Z,13.27
2022-11-27T03:20:42.003Z,15.27
2022-11-27T03:23:36.234Z,16.13
2022-11-27T03:26:31.028Z,16.13
2022-11-27T03:29:24.685Z,14.50
2022-11-27T03:32:14.279Z,15.57
2022-11-27T03:35:05.473Z,16.23
2022-11-27T03:37:54.595Z,13.50
2022-11-27T03:40:54.527Z,13.70
2022-11-27T03:43:51.592Z,15.07
2022-11-27T03:46:47.425Z,13.30
2022-11-27T03:49:47.704Z,15.80
2022-11-27T03:52:40.979Z,16.80
2022-11-27T03:55:38.405Z,15.97
2022-11-27T03:58:34.951Z,18.03
2022-11-27T04:01:30.231Z,16.73
2022-11-27T04:04:20.541Z,15.77
2022-11-27T04:07:12.717Z,15.83
2022-11-27T04:10:03.031Z,19.60
2022-11-27T04:12:52.776Z,15.30
2022-11-27T04:15:45.196Z,18.70
2022-11-27T04:18:33.857Z,16.50
2022-11-27T04:21:28.146Z,14.40
2022-11-27T04:24:18.653Z,15.90
2022-11-27T04:27:07.225Z,15.73
2022-11-27T04:29:57.219Z,16.27
2022-11-27T04:32:47.133Z,16.87
2022-11-27T04:35:39.782Z,20.27
2022-11-27T04:38:28.332Z,16.50
2022-11-27T04:41:18.964Z,16.50
2022-11-27T04:44:10.791Z,20.00
2022-11-27T04:47:04.380Z,19.97
2022-11-27T04:49:54.379Z,24.60
2022-11-27T04:52:42.987Z,18.07
2022-11-27T04:55:33.490Z,17.57
2022-11-27T04:58:24.127Z,19.47
2022-11-27T05:01:18.078Z,18.80
2022-11-27T05:04:09.047Z,16.80
2022-11-27T05:07:09.329Z,20.83
2022-11-27T05:10:00.271Z,21.97
2022-11-27T05:12:51.667Z,19.97
2022-11-27T05:15:43.862Z,18.70
2022-11-27T05:18:42.454Z,24.00
2022-11-27T05:21:32.037Z,22.23
2022-11-27T05:24:30.144Z,21.57
2022-11-27T05:27:22.935Z,23.50
2022-11-27T05:30:24.556Z,20.13
2022-11-27T05:33:20.499Z,20.20
2022-11-27T05:36:09.360Z,19.90
2022-11-27T05:38:59.098Z,21.33
2022-11-27T05:41:53.683Z,22.83
2022-11-27T05:44:43.757Z,21.60
2022-11-27T05:47:32.297Z,20.80
2022-11-27T05:50:25.681Z,22.23
2022-11-27T05:53:17.130Z,22.87
2022-11-27T05:56:08.856Z,20.87
2022-11-27T05:59:00.173Z,28.20
2022-11-27T06:01:49.506Z,24.73
2022-11-27T06:04:41.396Z,22.63
2022-11-27T06:07:34.093Z,24.43
2022-11-27T06:10:22.852Z,24.87
2022-11-27T06:13:13.633Z,23.67
2022-11-27T06:16:12.532Z,25.97
2022-11-27T06:19:01.603Z,26.97
2022-11-27T06:21:54.710Z,23.10
2022-11-27T06:24:43.448Z,22.60
2022-11-27T06:27:39.271Z,20.27
2022-11-27T06:30:27.862Z,23.17
2022-11-27T06:33:23.571Z,23.93
2022-11-27T06:36:15.301Z,20.77
2022-11-27T06:39:06.251Z,19.93
2022-11-27T06:41:57.473Z,21.53
2022-11-27T06:44:48.808Z,19.60
2022-11-27T06:47:39.540Z,19.97
2022-11-27T06:50:31.975Z,21.37
2022-11-27T06:53:24.013Z,18.27
2022-11-27T06:56:16.883Z,21.80
2022-11-27T06:59:12.766Z,22.13
2022-11-27T07:02:01.356Z,18.40
2022-11-27T07:04:49.946Z,19.30
2022-11-27T07:07:43.754Z,20.30
2022-11-27T07:10:37.459Z,20.30
2022-11-27T07:13:26.042Z,19.93
2022-11-27T07:16:18.150Z,18.30
2022-11-27T07:19:10.408Z,22.07
2022-11-27T07:22:01.658Z,21.60
2022-11-27T07:24:51.598Z,22.00
2022-11-27T07:27:42.256Z,18.73
2022-11-27T07:30:32.020Z,18.53
2022-11-27T07:33:20.607Z,20.17
2022-11-27T07:36:12.719Z,17.17
2022-11-27T07:39:05.488Z,19.80
2022-11-27T07:42:00.084Z,17.93
2022-11-27T07:44:57.799Z,19.63
2022-11-27T07:47:52.491Z,20.17
2022-11-27T07:50:43.028Z,18.40
2022-11-27T07:53:31.695Z,21.70
2022-11-27T07:56:20.588Z,20.53
2022-11-27T07:59:10.512Z,19.70
2022-11-27T08:01:59.098Z,18.20
2022-11-27T08:04:47.790Z,19.10
2022-11-27T08:07:36.527Z,19.13
2022-11-27T08:10:25.194Z,18.60
2022-11-27T08:13:16.605Z,22.17
2022-11-27T08:16:06.807Z,18.77
2022-11-27T08:18:55.578Z,16.73
2022-11-27T08:21:44.165Z,21.57
2022-11-27T08:24:36.276Z,20.50
2022-11-27T08:27:24.974Z,18.40
2022-11-27T08:30:13.777Z,17.60
2022-11-27T08:33:06.782Z,21.13
2022-11-27T08:35:55.395Z,18.33
2022-11-27T08:38:44.167Z,17.20
2022-11-27T08:41:32.752Z,17.30
2022-11-27T08:44:21.429Z,16.10
2022-11-27T08:47:10.001Z,19.83
2022-11-27T08:49:59.935Z,16.57
2022-11-27T08:52:48.739Z,17.30
2022-11-27T08:55:37.319Z,18.80
2022-11-27T08:58:25.913Z,16.37
2022-11-27T09:01:16.436Z,14.50
2022-11-27T09:04:05.155Z,16.43
2022-11-27T09:06:58.477Z,13.63
2022-11-27T09:09:49.472Z,16.27
2022-11-27T09:12:43.120Z,16.80
2022-11-27T09:15:32.103Z,18.27
2022-11-27T09:18:20.652Z,17.47
2022-11-27T09:21:10.090Z,15.83
2022-11-27T09:24:00.491Z,15.77
2022-11-27T09:26:49.147Z,15.07
2022-11-27T09:29:40.819Z,14.67
2022-11-27T09:32:29.391Z,14.43
2022-11-27T09:35:18.143Z,17.23
2022-11-27T09:38:06.867Z,16.43
2022-11-27T09:41:03.403Z,13.40
2022-11-27T09:43:56.753Z,15.33
2022-11-27T09:46:45.727Z,14.33
2022-11-27T09:49:37.527Z,16.20
2022-11-27T09:52:29.052Z,14.23
2022-11-27T09:55:19.925Z,13.40
2022-11-27T09:58:19.594Z,13.50
2022-11-27T10:01:12.060Z,17.73
2022-11-27T10:04:02.323Z,14.93
2022-11-27T10:07:03.113Z,11.67
2022-11-27T10:09:58.021Z,15.77
2022-11-27T10:12:51.243Z,12.97
2022-11-27T10:15:45.216Z,16.03
2022-11-27T10:18:36.093Z,16.70
2022-11-27T10:21:29.215Z,14.13
2022-11-27T10:24:21.548Z,14.33
2022-11-27T10:27:14.241Z,12.50
2022-11-27T10:30:03.281Z,13.77
2022-11-27T10:32:56.180Z,12.10
2022-11-27T10:35:45.320Z,15.17
2022-11-27T10:38:35.053Z,12.17
2022-11-27T10:41:48.372Z,12.37
2022-11-27T10:44:36.774Z,15.97
2022-11-27T10:47:28.542Z,15.27
2022-11-27T10:50:21.928Z,13.07
2022-11-27T10:53:12.013Z,12.23
2022-11-27T10:56:05.982Z,14.10
2022-11-27T10:58:57.113Z,12.23
2022-11-27T11:01:46.717Z,14.90
2022-11-27T11:04:54.535Z,12.80
2022-11-27T11:07:54.610Z,11.80
2022-11-27T11:10:51.750Z,14.70
2022-11-27T11:13:45.926Z,14.47
2022-11-27T11:16:43.525Z,14.50
2022-11-27T11:19:33.432Z,13.30
2022-11-27T11:22:22.054Z,17.03
2022-11-27T11:25:21.275Z,14.43
2022-11-27T11:28:18.511Z,17.23
2022-11-27T11:31:09.144Z,12.77
2022-11-27T11:33:59.300Z,12.97
2022-11-27T11:36:55.903Z,14.00
2022-11-27T11:39:47.545Z,12.30
2022-11-27T11:42:38.902Z,12.73
2022-11-27T11:45:31.357Z,15.67
2022-11-27T11:48:23.929Z,13.57
2022-11-27T11:51:16.129Z,12.47
2022-11-27T11:54:11.896Z,12.53
2022-11-27T11:57:03.866Z,14.03
2022-11-27T11:59:59.912Z,13.47
2022-11-27T12:03:12.247Z,12.80
2022-11-27T12:06:14.406Z,13.47
2022-11-27T12:09:09.156Z,12.60
2022-11-27T12:12:01.968Z,15.40
2022-11-27T12:14:54.144Z,14.37
2022-11-27T12:17:52.391Z,13.60
2022-11-27T12:20:44.903Z,12.67
2022-11-27T12:23:40.597Z,11.30
2022-11-27T12:26:41.156Z,10.87
2022-11-27T12:29:47.953Z,14.03
2022-11-27T12:32:57.599Z,15.50
2022-11-27T12:35:54.150Z,10.93
2022-11-27T12:38:47.804Z,14.43
2022-11-27T12:41:54.120Z,14.47
2022-11-27T12:44:51.711Z,13.43
2022-11-27T12:47:43.759Z,13.00
2022-11-27T12:50:39.943Z,11.87
2022-11-27T12:53:31.390Z,11.57
2022-11-27T12:56:24.161Z,11.77
2022-11-27T12:59:19.218Z,11.13
2022-11-27T13:02:14.419Z,11.37
2022-11-27T13:05:04.559Z,12.13
2022-11-27T13:07:56.265Z,11.53
2022-11-27T13:10:56.258Z,10.83
2022-11-27T13:13:48.905Z,12.90
2022-11-27T13:16:41.043Z,11.30
2022-11-27T13:19:33.678Z,10.47
2022-11-27T13:22:27.410Z,13.10
2022-11-27T13:25:16.394Z,10.00
2022-11-27T13:28:07.283Z,10.03
2022-11-27T13:30:56.358Z,10.63
2022-11-27T13:33:51.506Z,10.03
2022-11-27T13:36:44.694Z,9.70
2022-11-27T13:39:35.737Z,9.77
2022-11-27T13:42:26.454Z,11.37
2022-11-27T13:45:23.782Z,13.13
2022-11-27T13:48:25.228Z,11.40
2022-11-27T13:51:23.843Z,12.53
2022-11-27T13:54:13.324Z,11.77
2022-11-27T13:57:14.346Z,10.37
2022-11-27T14:00:03.984Z,12.97
2022-11-27T14:02:53.987Z,9.80
2022-11-27T14:05:44.309Z,9.90
2022-11-27T14:08:37.662Z,11.60
2022-11-27T14:11:32.125Z,10.07
2022-11-27T14:14:21.649Z,11.87
2022-11-27T14:17:25.515Z,14.57
2022-11-27T14:20:25.955Z,9.87
2022-11-27T14:23:14.583Z,17.00
2022-11-27T14:26:04.211Z,10.73
2022-11-27T14:28:54.105Z,11.23
2022-11-27T14:31:42.775Z,13.17
2022-11-27T14:34:31.463Z,10.70
2022-11-27T14:37:26.128Z,10.07
2022-11-27T14:40:15.835Z,12.63
2022-11-27T14:43:12.504Z,12.13
2022-11-27T14:46:02.899Z,11.67
2022-11-27T14:48:57.663Z,11.47
2022-11-27T14:51:46.510Z,10.03
2022-11-27T14:54:39.395Z,10.60
2022-11-27T14:57:30.731Z,9.33
2022-11-27T15:00:21.261Z,9.20
2022-11-27T15:03:10.753Z,9.17
2022-11-27T15:06:01.650Z,9.97
2022-11-27T15:09:09.130Z,9.87
2022-11-27T15:12:02.436Z,12.03
2022-11-27T15:14:53.639Z,11.03
2022-11-27T15:17:45.461Z,11.10
2022-11-27T15:20:39.936Z,10.43
2022-11-27T15:23:29.442Z,10.53
2022-11-27T15:26:29.714Z,12.67
2022-11-27T15:29:32.213Z,11.23
2022-11-27T15:32:23.810Z,9.40
2022-11-27T15:35:15.654Z,9.50
2022-11-27T15:38:12.509Z,11.67
2022-11-27T15:41:01.717Z,10.67
2022-11-27T15:43:50.618Z,12.73
2022-11-27T15:46:45.928Z,12.70
2022-11-27T15:49:34.822Z,11.17
2022-11-27T15:52:23.471Z,11.07
2022-11-27T15:55:15.908Z,11.20
2022-11-27T15:58:06.415Z,11.50
2022-11-27T16:00:55.071Z,10.13
2022-11-27T16:03:45.092Z,11.27
2022-11-27T16:06:33.710Z,11.67
2022-11-27T16:09:22.291Z,13.97
2022-11-27T16:12:10.897Z,11.90
2022-11-27T16:14:59.529Z,12.20
2022-11-27T16:17:48.176Z,9.87
2022-11-27T16:20:38.150Z,10.93
2022-11-27T16:23:26.695Z,12.60
2022-11-27T16:26:16.098Z,12.57
2022-11-27T16:29:04.691Z,9.90
2022-11-27T16:31:58.041Z,11.90
2022-11-27T16:34:51.378Z,11.87
2022-11-27T16:37:44.224Z,11.93
2022-11-27T16:40:34.764Z,10.73
2022-11-27T16:43:23.343Z,10.17
2022-11-27T16:46:13.315Z,12.87
2022-11-27T16:49:03.966Z,11.80
2022-11-27T16:51:52.636Z,11.83
2022-11-27T16:54:42.768Z,10.73
2022-11-27T16:57:31.558Z,13.07
2022-11-27T17:00:22.907Z,12.57
2022-11-27T17:03:14.211Z,13.37
2022-11-27T17:06:03.187Z,12.57
2022-11-27T17:08:51.793Z,11.77
2022-11-27T17:11:44.503Z,12.13
2022-11-27T17:14:33.123Z,13.20
2022-11-27T17:17:22.830Z,13.97
2022-11-27T17:20:13.546Z,11.33
2022-11-27T17:23:02.131Z,13.23
2022-11-27T17:25:51.025Z,11.40
2022-11-27T17:28:41.095Z,14.97
2022-11-27T17:31:32.791Z,11.33
2022-11-27T17:34:23.132Z,11.63
2022-11-27T17:37:11.747Z,11.17
2022-11-27T17:40:02.194Z,12.17
2022-11-27T17:42:54.113Z,11.10
2022-11-27T17:45:45.251Z,13.97
2022-11-27T17:48:37.222Z,14.80
2022-11-27T17:51:25.778Z,13.23
2022-11-27T17:54:14.364Z,13.67
2022-11-27T17:57:02.916Z,14.20
2022-11-27T17:59:53.924Z,16.30
2022-11-27T18:02:46.968Z,12.03
2022-11-27T18:05:41.736Z,12.97
2022-11-27T18:08:30.336Z,14.73
2022-11-27T18:11:26.542Z,18.47
2022-11-27T18:14:15.181Z,14.93
2022-11-27T18:17:06.979Z,14.60
2022-11-27T18:19:58.910Z,15.47
2022-11-27T18:22:47.668Z,15.10
2022-11-27T18:25:38.204Z,17.47
2022-11-27T18:28:29.767Z,13.37
2022-11-27T18:31:19.386Z,14.53
2022-11-27T18:34:10.432Z,13.27
2022-11-27T18:37:00.778Z,14.00
2022-11-27T18:39:49.436Z,13.53
2022-11-27T18:42:39.462Z,16.13
2022-11-27T18:45:33.461Z,15.27
2022-11-27T18:48:26.346Z,12.90
2022-11-27T18:51:16.108Z,12.27
2022-11-27T18:54:06.258Z,12.47
2022-11-27T18:56:55.023Z,14.57
2022-11-27T18:59:46.365Z,15.57
2022-11-27T19:02:35.049Z,14.73
2022-11-27T19:05:27.364Z,15.00
2022-11-27T19:08:18.646Z,14.73
2022-11-27T19:11:10.590Z,14.57
2022-11-27T19:14:01.847Z,13.20
2022-11-27T19:16:52.742Z,15.03
2022-11-27T19:19:54.319Z,12.87
2022-11-27T19:22:43.372Z,13.37
2022-11-27T19:25:37.120Z,14.73
2022-11-27T19:28:27.083Z,12.10
2022-11-27T19:31:19.652Z,13.10
2022-11-27T19:34:10.902Z,12.60
2022-11-27T19:36:59.531Z,12.80
2022-11-27T19:39:50.975Z,13.63
2022-11-27T19:42:39.565Z,13.40
2022-11-27T19:45:29.542Z,14.37
2022-11-27T19:48:23.711Z,12.17
2022-11-27T19:51:12.803Z,15.23
2022-11-27T19:54:04.535Z,12.70
2022-11-27T19:56:58.791Z,12.17
2022-11-27T19:59:47.374Z,13.73
2022-11-27T20:02:38.461Z,12.77
2022-11-27T20:05:27.087Z,11.80
2022-11-27T20:08:18.229Z,12.37
2022-11-27T20:11:07.369Z,13.77
2022-11-27T20:13:58.645Z,11.60
2022-11-27T20:16:47.358Z,14.73
2022-11-27T20:19:37.373Z,12.40
2022-11-27T20:22:28.502Z,15.53
2022-11-27T20:25:19.793Z,12.90
2022-11-27T20:28:09.006Z,12.20
2022-11-27T20:31:03.092Z,15.57
2022-11-27T20:33:52.107Z,13.17
2022-11-27T20:36:42.108Z,13.57
2022-11-27T20:39:30.728Z,12.93
2022-11-27T20:42:22.150Z,14.77
2022-11-27T20:45:12.442Z,12.67
2022-11-27T20:48:02.729Z,12.80
2022-11-27T20:50:51.557Z,12.17
2022-11-27T20:53:41.662Z,14.13
2022-11-27T20:56:31.197Z,13.77
2022-11-27T20:59:25.140Z,13.83
2022-11-27T21:02:16.794Z,14.70
2022-11-27T21:05:05.671Z,12.57
2022-11-27T21:08:00.605Z,15.70
2022-11-27T21:10:53.864Z,13.27
2022-11-27T21:13:44.742Z,11.17
2022-11-27T21:16:39.463Z,11.23
2022-11-27T21:19:29.999Z,12.13
2022-11-27T21:22:18.691Z,15.10
2022-11-27T21:25:10.245Z,11.70
2022-11-27T21:28:03.070Z,15.10
2022-11-27T21:30:56.570Z,12.87
2022-11-27T21:33:57.360Z,11.93
2022-11-27T21:36:48.867Z,11.77
2022-11-27T21:39:51.020Z,15.70
2022-11-27T21:42:44.318Z,13.03
2022-11-27T21:45:37.560Z,13.10
2022-11-27T21:48:28.285Z,12.57
2022-11-27T21:51:20.139Z,16.07
2022-11-27T21:54:10.574Z,13.53
2022-11-27T21:57:00.364Z,14.27
2022-11-27T21:59:51.034Z,13.60
2022-11-27T22:02:43.011Z,16.97
2022-11-27T22:05:31.615Z,14.90
2022-11-27T22:08:21.926Z,20.40
2022-11-27T22:11:13.312Z,13.07
2022-11-27T22:14:05.020Z,13.40
2022-11-27T22:16:56.074Z,13.73
2022-11-27T22:19:49.791Z,12.80
2022-11-27T22:22:39.584Z,12.13
2022-11-27T22:25:29.948Z,12.53
2022-11-27T22:28:21.295Z,11.57
2022-11-27T22:31:10.495Z,12.73
2022-11-27T22:33:59.333Z,15.57
2022-11-27T22:36:49.236Z,11.13
2022-11-27T22:39:41.839Z,12.33
2022-11-27T22:42:33.174Z,10.63
2022-11-27T22:45:24.856Z,11.83
2022-11-27T22:48:16.110Z,13.30
2022-11-27T22:51:04.947Z,11.03
2022-11-27T22:53:59.139Z,10.43
2022-11-27T22:56:50.035Z,11.17
2022-11-27T22:59:41.643Z,16.17
2022-11-27T23:02:30.335Z,11.50
2022-11-27T23:05:20.865Z,14.60
2022-11-27T23:08:13.223Z,11.07
2022-11-27T23:11:06.038Z,16.10
2022-11-27T23:14:00.666Z,13.80
2022-11-27T23:16:49.395Z,11.33
2022-11-27T23:19:43.043Z,12.40
2022-11-27T23:22:31.581Z,13.10
2022-11-27T23:25:20.284Z,12.40
2022-11-27T23:28:15.971Z,14.77
2022-11-27T23:31:28.982Z,12.20
2022-11-27T23:34:18.610Z,13.23
2022-11-27T23:37:14.517Z,12.80
2022-11-27T23:40:05.062Z,10.70
2022-11-27T23:42:56.399Z,14.87
2022-11-27T23:45:48.153Z,13.73
2022-11-27T23:48:38.259Z,12.03
2022-11-27T23:51:32.778Z,14.53
2022-11-27T23:54:21.369Z,12.80
2022-11-27T23:57:11.743Z,12.00
